sensor_id;sensor_type;location;lat;lon;timestamp;P1;durP1;ratioP1;P2;durP2;ratioP2
20956;SDS011;10637;47.970;7.830;2023-11-18T00:01:32;12.27;;;3.13;;
20956;SDS011;10637;47.970;7.830;2023-11-18T00:06:35;9.17;;;2.90;;
20956;SDS011;10637;47.970;7.830;2023-11-18T00:11:37;13.73;;;2.97;;
20956;SDS011;10637;47.970;7.830;2023-11-18T00:16:39;9.97;;;2.80;;
20956;SDS011;10637;47.970;7.830;2023-11-18T00:21:41;12.27;;;2.93;;
20956;SDS011;10637;47.970;7.830;2023-11-18T00:26:43;11.10;;;3.10;;
20956;SDS011;10637;47.970;7.830;2023-11-18T00:31:45;12.87;;;2.53;;
20956;SDS011;10637;47.970;7.830;2023-11-18T00:36:47;10.00;;;2.23;;
20956;SDS011;10637;47.970;7.830;2023-11-18T00:41:52;9.57;;;2.53;;
20956;SDS011;10637;47.970;7.830;2023-11-18T00:46:54;25.17;;;7.87;;
20956;SDS011;10637;47.970;7.830;2023-11-18T00:51:57;8.10;;;2.20;;
20956;SDS011;10637;47.970;7.830;2023-11-18T00:56:59;6.87;;;1.90;;
20956;SDS011;10637;47.970;7.830;2023-11-18T01:02:01;5.67;;;1.20;;
20956;SDS011;10637;47.970;7.830;2023-11-18T01:07:06;6.17;;;1.40;;
20956;SDS011;10637;47.970;7.830;2023-11-18T01:12:07;8.00;;;2.23;;
20956;SDS011;10637;47.970;7.830;2023-11-18T01:17:11;9.67;;;2.70;;
20956;SDS011;10637;47.970;7.830;2023-11-18T01:22:15;11.30;;;3.10;;
20956;SDS011;10637;47.970;7.830;2023-11-18T01:27:16;14.60;;;4.30;;
20956;SDS011;10637;47.970;7.830;2023-11-18T01:32:20;10.97;;;2.50;;
20956;SDS011;10637;47.970;7.830;2023-11-18T01:37:22;15.87;;;5.27;;
20956;SDS011;10637;47.970;7.830;2023-11-18T01:42:25;16.07;;;5.83;;
20956;SDS011;10637;47.970;7.830;2023-11-18T01:47:27;8.93;;;2.80;;
20956;SDS011;10637;47.970;7.830;2023-11-18T01:52:29;12.93;;;3.20;;
20956;SDS011;10637;47.970;7.830;2023-11-18T01:57:32;9.83;;;3.10;;
20956;SDS011;10637;47.970;7.830;2023-11-18T02:02:35;8.53;;;1.60;;
20956;SDS011;10637;47.970;7.830;2023-11-18T02:07:39;8.87;;;2.60;;
20956;SDS011;10637;47.970;7.830;2023-11-18T02:12:46;7.97;;;2.70;;
20956;SDS011;10637;47.970;7.830;2023-11-18T02:17:57;8.10;;;3.10;;
20956;SDS011;10637;47.970;7.830;2023-11-18T02:23:00;9.90;;;2.50;;
20956;SDS011;10637;47.970;7.830;2023-11-18T02:28:03;7.57;;;1.90;;
20956;SDS011;10637;47.970;7.830;2023-11-18T02:33:17;6.57;;;2.10;;
20956;SDS011;10637;47.970;7.830;2023-11-18T02:38:31;7.63;;;1.80;;
20956;SDS011;10637;47.970;7.830;2023-11-18T02:43:40;7.80;;;1.80;;
20956;SDS011;10637;47.970;7.830;2023-11-18T02:48:42;6.17;;;1.63;;
20956;SDS011;10637;47.970;7.830;2023-11-18T02:53:45;7.47;;;1.70;;
20956;SDS011;10637;47.970;7.830;2023-11-18T02:58:46;6.90;;;1.80;;
20956;SDS011;10637;47.970;7.830;2023-11-18T03:03:48;4.97;;;1.20;;
20956;SDS011;10637;47.970;7.830;2023-11-18T03:08:50;5.23;;;1.37;;
20956;SDS011;10637;47.970;7.830;2023-11-18T03:13:53;5.47;;;1.60;;
20956;SDS011;10637;47.970;7.830;2023-11-18T03:18:55;7.87;;;2.10;;
20956;SDS011;10637;47.970;7.830;2023-11-18T03:23:56;7.60;;;2.17;;
20956;SDS011;10637;47.970;7.830;2023-11-18T03:28:59;7.60;;;1.93;;
20956;SDS011;10637;47.970;7.830;2023-11-18T03:34:01;5.27;;;1.53;;
20956;SDS011;10637;47.970;7.830;2023-11-18T03:39:03;5.53;;;1.50;;
20956;SDS011;10637;47.970;7.830;2023-11-18T03:44:05;8.53;;;1.67;;
20956;SDS011;10637;47.970;7.830;2023-11-18T03:49:07;7.70;;;1.60;;
20956;SDS011;10637;47.970;7.830;2023-11-18T03:54:09;5.77;;;1.43;;
20956;SDS011;10637;47.970;7.830;2023-11-18T03:59:11;7.57;;;1.70;;
20956;SDS011;10637;47.970;7.830;2023-11-18T04:04:13;6.57;;;1.53;;
20956;SDS011;10637;47.970;7.830;2023-11-18T04:09:15;6.47;;;1.60;;
20956;SDS011;10637;47.970;7.830;2023-11-18T04:14:17;6.77;;;1.40;;
20956;SDS011;10637;47.970;7.830;2023-11-18T04:19:20;9.33;;;1.50;;
20956;SDS011;10637;47.970;7.830;2023-11-18T04:24:22;9.80;;;2.43;;
20956;SDS011;10637;47.970;7.830;2023-11-18T04:29:23;52.70;;;16.37;;
20956;SDS011;10637;47.970;7.830;2023-11-18T04:34:25;81.87;;;23.20;;
20956;SDS011;10637;47.970;7.830;2023-11-18T04:39:27;26.40;;;8.53;;
20956;SDS011;10637;47.970;7.830;2023-11-18T04:44:31;31.03;;;9.43;;
20956;SDS011;10637;47.970;7.830;2023-11-18T04:49:33;25.37;;;8.37;;
20956;SDS011;10637;47.970;7.830;2023-11-18T04:54:35;21.43;;;8.67;;
20956;SDS011;10637;47.970;7.830;2023-11-18T04:59:37;26.77;;;11.17;;
20956;SDS011;10637;47.970;7.830;2023-11-18T05:04:39;19.53;;;7.77;;
20956;SDS011;10637;47.970;7.830;2023-11-18T05:09:42;36.97;;;12.80;;
20956;SDS011;10637;47.970;7.830;2023-11-18T05:14:44;50.17;;;16.63;;
20956;SDS011;10637;47.970;7.830;2023-11-18T05:19:45;11.03;;;3.63;;
20956;SDS011;10637;47.970;7.830;2023-11-18T05:24:47;22.50;;;7.93;;
20956;SDS011;10637;47.970;7.830;2023-11-18T05:29:50;19.87;;;6.77;;
20956;SDS011;10637;47.970;7.830;2023-11-18T05:34:55;11.33;;;3.30;;
20956;SDS011;10637;47.970;7.830;2023-11-18T05:39:59;8.27;;;1.60;;
20956;SDS011;10637;47.970;7.830;2023-11-18T05:45:07;10.20;;;3.20;;
20956;SDS011;10637;47.970;7.830;2023-11-18T05:50:10;10.23;;;2.37;;
20956;SDS011;10637;47.970;7.830;2023-11-18T05:55:12;8.00;;;2.60;;
20956;SDS011;10637;47.970;7.830;2023-11-18T06:00:14;13.43;;;4.00;;
20956;SDS011;10637;47.970;7.830;2023-11-18T06:05:27;12.43;;;4.80;;
20956;SDS011;10637;47.970;7.830;2023-11-18T06:10:30;13.00;;;5.80;;
20956;SDS011;10637;47.970;7.830;2023-11-18T06:15:36;12.10;;;5.27;;
20956;SDS011;10637;47.970;7.830;2023-11-18T06:20:39;10.87;;;4.00;;
20956;SDS011;10637;47.970;7.830;2023-11-18T06:25:41;8.47;;;3.53;;
20956;SDS011;10637;47.970;7.830;2023-11-18T06:30:43;8.00;;;2.77;;
20956;SDS011;10637;47.970;7.830;2023-11-18T06:35:44;10.93;;;4.27;;
20956;SDS011;10637;47.970;7.830;2023-11-18T06:40:46;12.50;;;3.80;;
20956;SDS011;10637;47.970;7.830;2023-11-18T06:45:48;15.27;;;5.23;;
20956;SDS011;10637;47.970;7.830;2023-11-18T06:50:50;132.90;;;30.80;;
20956;SDS011;10637;47.970;7.830;2023-11-18T06:55:51;58.33;;;15.87;;
20956;SDS011;10637;47.970;7.830;2023-11-18T07:00:53;49.33;;;16.87;;
20956;SDS011;10637;47.970;7.830;2023-11-18T07:05:55;21.93;;;9.53;;
20956;SDS011;10637;47.970;7.830;2023-11-18T07:10:57;21.40;;;7.90;;
20956;SDS011;10637;47.970;7.830;2023-11-18T07:15:58;18.80;;;8.80;;
20956;SDS011;10637;47.970;7.830;2023-11-18T07:21:01;16.70;;;6.10;;
20956;SDS011;10637;47.970;7.830;2023-11-18T07:26:05;16.57;;;6.07;;
20956;SDS011;10637;47.970;7.830;2023-11-18T07:31:07;14.23;;;5.37;;
20956;SDS011;10637;47.970;7.830;2023-11-18T07:36:10;13.57;;;5.73;;
20956;SDS011;10637;47.970;7.830;2023-11-18T07:41:12;11.90;;;4.87;;
20956;SDS011;10637;47.970;7.830;2023-11-18T07:46:31;11.67;;;4.67;;
20956;SDS011;10637;47.970;7.830;2023-11-18T07:51:33;13.13;;;4.33;;
20956;SDS011;10637;47.970;7.830;2023-11-18T07:56:35;14.33;;;4.93;;
20956;SDS011;10637;47.970;7.830;2023-11-18T08:01:40;15.07;;;5.20;;
20956;SDS011;10637;47.970;7.830;2023-11-18T08:06:45;12.43;;;4.97;;
20956;SDS011;10637;47.970;7.830;2023-11-18T08:11:47;12.63;;;5.70;;
20956;SDS011;10637;47.970;7.830;2023-11-18T08:16:49;12.90;;;5.00;;
20956;SDS011;10637;47.970;7.830;2023-11-18T08:21:51;16.60;;;5.73;;
20956;SDS011;10637;47.970;7.830;2023-11-18T08:26:53;16.50;;;5.07;;
20956;SDS011;10637;47.970;7.830;2023-11-18T08:31:55;13.37;;;4.50;;
20956;SDS011;10637;47.970;7.830;2023-11-18T08:36:57;12.03;;;3.80;;
20956;SDS011;10637;47.970;7.830;2023-11-18T08:41:59;15.13;;;4.70;;
20956;SDS011;10637;47.970;7.830;2023-11-18T08:47:01;12.73;;;4.00;;
20956;SDS011;10637;47.970;7.830;2023-11-18T08:52:10;11.60;;;3.83;;
20956;SDS011;10637;47.970;7.830;2023-11-18T08:57:14;16.83;;;5.50;;
20956;SDS011;10637;47.970;7.830;2023-11-18T09:02:26;19.40;;;4.30;;
20956;SDS011;10637;47.970;7.830;2023-11-18T09:07:34;15.63;;;4.30;;
20956;SDS011;10637;47.970;7.830;2023-11-18T09:12:38;15.03;;;6.17;;
20956;SDS011;10637;47.970;7.830;2023-11-18T09:17:42;10.67;;;3.40;;
20956;SDS011;10637;47.970;7.830;2023-11-18T09:22:46;12.33;;;4.00;;
20956;SDS011;10637;47.970;7.830;2023-11-18T09:27:48;12.67;;;3.90;;
20956;SDS011;10637;47.970;7.830;2023-11-18T09:32:50;13.20;;;3.80;;
20956;SDS011;10637;47.970;7.830;2023-11-18T09:37:52;13.70;;;3.40;;
20956;SDS011;10637;47.970;7.830;2023-11-18T09:42:54;13.63;;;2.67;;
20956;SDS011;10637;47.970;7.830;2023-11-18T09:47:59;18.27;;;3.63;;
20956;SDS011;10637;47.970;7.830;2023-11-18T09:53:04;13.77;;;3.57;;
20956;SDS011;10637;47.970;7.830;2023-11-18T09:58:14;14.83;;;4.60;;
20956;SDS011;10637;47.970;7.830;2023-11-18T10:03:20;8.60;;;3.00;;
20956;SDS011;10637;47.970;7.830;2023-11-18T10:08:24;9.33;;;2.70;;
20956;SDS011;10637;47.970;7.830;2023-11-18T10:13:27;8.57;;;2.47;;
20956;SDS011;10637;47.970;7.830;2023-11-18T10:18:29;9.13;;;2.80;;
20956;SDS011;10637;47.970;7.830;2023-11-18T10:23:32;9.30;;;2.37;;
20956;SDS011;10637;47.970;7.830;2023-11-18T10:28:35;8.00;;;2.87;;
20956;SDS011;10637;47.970;7.830;2023-11-18T10:33:39;10.70;;;3.13;;
20956;SDS011;10637;47.970;7.830;2023-11-18T10:38:44;10.50;;;3.20;;
20956;SDS011;10637;47.970;7.830;2023-11-18T10:44:07;12.47;;;3.03;;
20956;SDS011;10637;47.970;7.830;2023-11-18T10:49:16;10.77;;;3.90;;
20956;SDS011;10637;47.970;7.830;2023-11-18T10:54:18;10.63;;;3.87;;
20956;SDS011;10637;47.970;7.830;2023-11-18T10:59:20;10.77;;;3.60;;
20956;SDS011;10637;47.970;7.830;2023-11-18T11:04:23;10.07;;;3.57;;
20956;SDS011;10637;47.970;7.830;2023-11-18T11:09:25;12.63;;;4.33;;
20956;SDS011;10637;47.970;7.830;2023-11-18T11:14:33;10.93;;;4.17;;
20956;SDS011;10637;47.970;7.830;2023-11-18T11:19:39;12.93;;;4.57;;
20956;SDS011;10637;47.970;7.830;2023-11-18T11:30:28;12.03;;;5.77;;
20956;SDS011;10637;47.970;7.830;2023-11-18T11:35:33;14.13;;;6.67;;
20956;SDS011;10637;47.970;7.830;2023-11-18T11:40:41;13.47;;;5.97;;
20956;SDS011;10637;47.970;7.830;2023-11-18T11:45:43;14.20;;;6.40;;
20956;SDS011;10637;47.970;7.830;2023-11-18T11:50:54;12.67;;;5.93;;
20956;SDS011;10637;47.970;7.830;2023-11-18T11:56:05;19.00;;;9.87;;
20956;SDS011;10637;47.970;7.830;2023-11-18T12:01:15;14.83;;;6.93;;
20956;SDS011;10637;47.970;7.830;2023-11-18T12:06:19;16.33;;;7.60;;
20956;SDS011;10637;47.970;7.830;2023-11-18T12:11:25;16.33;;;9.53;;
20956;SDS011;10637;47.970;7.830;2023-11-18T12:22:02;19.13;;;7.13;;
20956;SDS011;10637;47.970;7.830;2023-11-18T12:27:13;13.73;;;6.57;;
20956;SDS011;10637;47.970;7.830;2023-11-18T12:48:59;15.13;;;5.77;;
20956;SDS011;10637;47.970;7.830;2023-11-18T12:54:03;13.80;;;5.20;;
20956;SDS011;10637;47.970;7.830;2023-11-18T12:59:08;15.27;;;4.50;;
20956;SDS011;10637;47.970;7.830;2023-11-18T13:04:10;12.40;;;4.23;;
20956;SDS011;10637;47.970;7.830;2023-11-18T13:09:12;12.20;;;3.87;;
20956;SDS011;10637;47.970;7.830;2023-11-18T13:14:26;9.73;;;3.87;;
20956;SDS011;10637;47.970;7.830;2023-11-18T13:19:29;12.73;;;4.00;;
20956;SDS011;10637;47.970;7.830;2023-11-18T13:24:30;11.83;;;3.90;;
20956;SDS011;10637;47.970;7.830;2023-11-18T13:29:35;13.43;;;4.57;;
20956;SDS011;10637;47.970;7.830;2023-11-18T13:34:40;12.27;;;4.10;;
20956;SDS011;10637;47.970;7.830;2023-11-18T13:39:52;13.00;;;4.73;;
20956;SDS011;10637;47.970;7.830;2023-11-18T13:44:59;12.80;;;4.43;;
20956;SDS011;10637;47.970;7.830;2023-11-18T13:50:05;11.50;;;4.57;;
20956;SDS011;10637;47.970;7.830;2023-11-18T13:55:12;10.93;;;3.60;;
20956;SDS011;10637;47.970;7.830;2023-11-18T14:00:27;12.53;;;3.90;;
20956;SDS011;10637;47.970;7.830;2023-11-18T14:05:33;16.17;;;5.63;;
20956;SDS011;10637;47.970;7.830;2023-11-18T14:10:35;13.23;;;4.93;;
20956;SDS011;10637;47.970;7.830;2023-11-18T14:15:39;10.70;;;4.77;;
20956;SDS011;10637;47.970;7.830;2023-11-18T14:20:44;10.87;;;3.17;;
20956;SDS011;10637;47.970;7.830;2023-11-18T14:25:46;9.53;;;1.80;;
20956;SDS011;10637;47.970;7.830;2023-11-18T14:30:48;9.03;;;1.90;;
20956;SDS011;10637;47.970;7.830;2023-11-18T14:35:50;7.27;;;1.80;;
20956;SDS011;10637;47.970;7.830;2023-11-18T14:40:51;9.30;;;2.60;;
20956;SDS011;10637;47.970;7.830;2023-11-18T14:45:54;12.27;;;4.10;;
20956;SDS011;10637;47.970;7.830;2023-11-18T14:50:56;12.10;;;4.50;;
20956;SDS011;10637;47.970;7.830;2023-11-18T14:55:58;11.57;;;4.73;;
20956;SDS011;10637;47.970;7.830;2023-11-18T15:01:00;12.60;;;4.83;;
20956;SDS011;10637;47.970;7.830;2023-11-18T15:06:02;16.17;;;5.20;;
20956;SDS011;10637;47.970;7.830;2023-11-18T15:11:04;14.33;;;5.40;;
20956;SDS011;10637;47.970;7.830;2023-11-18T15:16:08;12.50;;;4.77;;
20956;SDS011;10637;47.970;7.830;2023-11-18T15:21:09;14.63;;;5.90;;
20956;SDS011;10637;47.970;7.830;2023-11-18T15:26:16;15.03;;;5.13;;
20956;SDS011;10637;47.970;7.830;2023-11-18T15:31:18;12.73;;;3.70;;
20956;SDS011;10637;47.970;7.830;2023-11-18T15:36:20;13.97;;;4.63;;
20956;SDS011;10637;47.970;7.830;2023-11-18T15:41:21;11.57;;;4.90;;
20956;SDS011;10637;47.970;7.830;2023-11-18T15:46:23;13.10;;;6.07;;
20956;SDS011;10637;47.970;7.830;2023-11-18T15:51:25;13.00;;;5.37;;
20956;SDS011;10637;47.970;7.830;2023-11-18T15:56:28;19.77;;;11.10;;
20956;SDS011;10637;47.970;7.830;2023-11-18T16:01:30;15.70;;;8.70;;
20956;SDS011;10637;47.970;7.830;2023-11-18T16:06:33;19.50;;;9.47;;
20956;SDS011;10637;47.970;7.830;2023-11-18T16:11:34;12.87;;;5.17;;
20956;SDS011;10637;47.970;7.830;2023-11-18T16:16:37;17.03;;;6.30;;
20956;SDS011;10637;47.970;7.830;2023-11-18T16:21:39;26.20;;;11.10;;
20956;SDS011;10637;47.970;7.830;2023-11-18T16:26:41;30.77;;;10.40;;
20956;SDS011;10637;47.970;7.830;2023-11-18T16:31:45;19.83;;;5.57;;
20956;SDS011;10637;47.970;7.830;2023-11-18T16:36:46;18.30;;;5.73;;
20956;SDS011;10637;47.970;7.830;2023-11-18T16:41:50;9.07;;;2.40;;
20956;SDS011;10637;47.970;7.830;2023-11-18T16:46:52;25.57;;;4.73;;
20956;SDS011;10637;47.970;7.830;2023-11-18T16:51:53;8.80;;;2.20;;
20956;SDS011;10637;47.970;7.830;2023-11-18T16:57:00;8.77;;;2.30;;
20956;SDS011;10637;47.970;7.830;2023-11-18T17:02:02;4.90;;;1.40;;
20956;SDS011;10637;47.970;7.830;2023-11-18T17:07:07;7.80;;;2.30;;
20956;SDS011;10637;47.970;7.830;2023-11-18T17:12:08;11.87;;;7.17;;
20956;SDS011;10637;47.970;7.830;2023-11-18T17:17:10;10.80;;;3.17;;
20956;SDS011;10637;47.970;7.830;2023-11-18T17:22:13;5.07;;;1.10;;
20956;SDS011;10637;47.970;7.830;2023-11-18T17:27:14;5.47;;;1.33;;
20956;SDS011;10637;47.970;7.830;2023-11-18T17:32:16;4.53;;;1.17;;
20956;SDS011;10637;47.970;7.830;2023-11-18T17:37:18;7.27;;;2.40;;
20956;SDS011;10637;47.970;7.830;2023-11-18T17:42:19;6.60;;;1.70;;
20956;SDS011;10637;47.970;7.830;2023-11-18T17:47:21;10.50;;;3.17;;
20956;SDS011;10637;47.970;7.830;2023-11-18T17:52:26;3.33;;;1.10;;
20956;SDS011;10637;47.970;7.830;2023-11-18T17:57:27;2.97;;;0.90;;
20956;SDS011;10637;47.970;7.830;2023-11-18T18:02:29;3.93;;;1.20;;
20956;SDS011;10637;47.970;7.830;2023-11-18T18:07:31;4.50;;;1.20;;
20956;SDS011;10637;47.970;7.830;2023-11-18T18:12:33;5.23;;;1.20;;
20956;SDS011;10637;47.970;7.830;2023-11-18T18:17:35;6.37;;;1.40;;
20956;SDS011;10637;47.970;7.830;2023-11-18T18:22:38;5.17;;;1.50;;
20956;SDS011;10637;47.970;7.830;2023-11-18T18:27:40;5.20;;;1.30;;
20956;SDS011;10637;47.970;7.830;2023-11-18T18:32:43;5.07;;;1.10;;
20956;SDS011;10637;47.970;7.830;2023-11-18T18:37:47;5.40;;;1.27;;
20956;SDS011;10637;47.970;7.830;2023-11-18T18:42:50;5.40;;;1.40;;
20956;SDS011;10637;47.970;7.830;2023-11-18T18:47:51;5.53;;;1.40;;
20956;SDS011;10637;47.970;7.830;2023-11-18T18:52:54;5.90;;;1.30;;
20956;SDS011;10637;47.970;7.830;2023-11-18T18:57:55;11.80;;;4.47;;
20956;SDS011;10637;47.970;7.830;2023-11-18T19:02:57;4.83;;;1.00;;
20956;SDS011;10637;47.970;7.830;2023-11-18T19:07:59;4.87;;;1.50;;
20956;SDS011;10637;47.970;7.830;2023-11-18T19:13:01;4.77;;;1.13;;
20956;SDS011;10637;47.970;7.830;2023-11-18T19:18:04;6.80;;;1.33;;
20956;SDS011;10637;47.970;7.830;2023-11-18T19:23:07;5.00;;;1.33;;
20956;SDS011;10637;47.970;7.830;2023-11-18T19:28:09;4.97;;;1.30;;
20956;SDS011;10637;47.970;7.830;2023-11-18T19:33:12;5.77;;;1.80;;
20956;SDS011;10637;47.970;7.830;2023-11-18T19:38:14;5.63;;;1.70;;
20956;SDS011;10637;47.970;7.830;2023-11-18T19:43:16;5.97;;;1.20;;
20956;SDS011;10637;47.970;7.830;2023-11-18T19:48:17;8.83;;;2.90;;
20956;SDS011;10637;47.970;7.830;2023-11-18T19:53:22;6.10;;;1.70;;
20956;SDS011;10637;47.970;7.830;2023-11-18T19:58:24;9.33;;;2.90;;
20956;SDS011;10637;47.970;7.830;2023-11-18T20:03:25;7.20;;;1.87;;
20956;SDS011;10637;47.970;7.830;2023-11-18T20:08:27;8.27;;;1.90;;
20956;SDS011;10637;47.970;7.830;2023-11-18T20:13:30;5.00;;;1.00;;
20956;SDS011;10637;47.970;7.830;2023-11-18T20:18:32;4.77;;;1.43;;
20956;SDS011;10637;47.970;7.830;2023-11-18T20:23:34;4.07;;;0.90;;
20956;SDS011;10637;47.970;7.830;2023-11-18T20:28:36;4.63;;;0.97;;
20956;SDS011;10637;47.970;7.830;2023-11-18T20:33:40;3.80;;;0.90;;
20956;SDS011;10637;47.970;7.830;2023-11-18T20:38:43;4.73;;;1.10;;
20956;SDS011;10637;47.970;7.830;2023-11-18T20:43:45;7.03;;;1.13;;
20956;SDS011;10637;47.970;7.830;2023-11-18T20:48:48;4.60;;;1.00;;
20956;SDS011;10637;47.970;7.830;2023-11-18T20:53:50;3.77;;;1.10;;
20956;SDS011;10637;47.970;7.830;2023-11-18T20:58:52;4.13;;;1.20;;
20956;SDS011;10637;47.970;7.830;2023-11-18T21:03:54;3.77;;;1.00;;
20956;SDS011;10637;47.970;7.830;2023-11-18T21:08:55;3.53;;;0.90;;
20956;SDS011;10637;47.970;7.830;2023-11-18T21:13:57;2.87;;;0.77;;
20956;SDS011;10637;47.970;7.830;2023-11-18T21:18:59;4.37;;;1.00;;
20956;SDS011;10637;47.970;7.830;2023-11-18T21:24:02;4.23;;;0.90;;
20956;SDS011;10637;47.970;7.830;2023-11-18T21:29:04;3.93;;;1.00;;
20956;SDS011;10637;47.970;7.830;2023-11-18T21:34:06;4.70;;;1.10;;
20956;SDS011;10637;47.970;7.830;2023-11-18T21:39:08;4.90;;;0.97;;
20956;SDS011;10637;47.970;7.830;2023-11-18T21:44:14;5.63;;;1.20;;
20956;SDS011;10637;47.970;7.830;2023-11-18T21:49:16;4.33;;;1.00;;
20956;SDS011;10637;47.970;7.830;2023-11-18T21:54:18;6.40;;;1.27;;
20956;SDS011;10637;47.970;7.830;2023-11-18T21:59:19;3.83;;;1.03;;
20956;SDS011;10637;47.970;7.830;2023-11-18T22:04:21;5.20;;;1.07;;
20956;SDS011;10637;47.970;7.830;2023-11-18T22:09:23;5.47;;;1.30;;
20956;SDS011;10637;47.970;7.830;2023-11-18T22:14:25;4.33;;;1.10;;
20956;SDS011;10637;47.970;7.830;2023-11-18T22:19:27;4.73;;;1.13;;
20956;SDS011;10637;47.970;7.830;2023-11-18T22:24:29;5.80;;;1.13;;
20956;SDS011;10637;47.970;7.830;2023-11-18T22:29:31;3.53;;;1.00;;
20956;SDS011;10637;47.970;7.830;2023-11-18T22:34:34;4.63;;;1.20;;
20956;SDS011;10637;47.970;7.830;2023-11-18T22:39:36;4.97;;;1.37;;
20956;SDS011;10637;47.970;7.830;2023-11-18T22:44:38;4.37;;;1.20;;
20956;SDS011;10637;47.970;7.830;2023-11-18T22:49:46;6.53;;;1.40;;
20956;SDS011;10637;47.970;7.830;2023-11-18T22:54:48;5.27;;;1.37;;
20956;SDS011;10637;47.970;7.830;2023-11-18T22:59:50;4.07;;;1.10;;
20956;SDS011;10637;47.970;7.830;2023-11-18T23:04:52;8.77;;;2.57;;
20956;SDS011;10637;47.970;7.830;2023-11-18T23:09:58;8.67;;;2.53;;
20956;SDS011;10637;47.970;7.830;2023-11-18T23:15:01;6.13;;;1.63;;
20956;SDS011;10637;47.970;7.830;2023-11-18T23:20:05;4.80;;;1.07;;
20956;SDS011;10637;47.970;7.830;2023-11-18T23:25:12;4.50;;;1.10;;
20956;SDS011;10637;47.970;7.830;2023-11-18T23:30:14;3.27;;;1.10;;
20956;SDS011;10637;47.970;7.830;2023-11-18T23:35:16;6.03;;;1.33;;
20956;SDS011;10637;47.970;7.830;2023-11-18T23:40:19;4.77;;;0.93;;
20956;SDS011;10637;47.970;7.830;2023-11-18T23:45:24;6.53;;;1.00;;
20956;SDS011;10637;47.970;7.830;2023-11-18T23:50:26;8.47;;;1.30;;
20956;SDS011;10637;47.970;7.830;2023-11-18T23:55:33;6.47;;;1.10;;
